• Join FlightAware (Why Join?)
  • Login
  • US Flag 
05:41PM EDT


 

Airport Tracker/Info


-or-


 

Live Flight TrackerFlight Track Log ✈ FDX1347 ✈ 08-Aug-2014 ✈ KALB - KMEM

Flight Track Log - Related Links

Times and Time Zones

All times are in EDT time to prevent confusion due to time zone crossing. See the FDX1347 flight status page for this flight to view local times or setup timezone preferences in your user account.

Time Position Orientation Groundspeed Altitude Reporting Facility
EDT Latitude Longitude Course Direction KTS MPH feet Rate Location/Type
09:56PM 42.7725 -73.8044 216° Southwest 171 197 1,700  Level Boston Center
09:57PM 42.8003 -73.8167 342° North 204 235 2,700 2,100 Climbing Boston Center
09:57PM 42.8081 -73.8486 288° West 224 258 3,600 3,000 Climbing Boston Center
09:58PM 42.7950 -73.9478 260° West 269 310 7,000 3,300 Climbing Boston Center
09:59PM 42.7528 -74.0472 240° Southwest 289 333 10,400 2,280 Climbing Boston Center
10:00PM 42.6972 -74.1519 234° Southwest 352 405 11,700 1,860 Climbing Boston Center
10:01PM 42.6347 -74.2703 234° Southwest 384 442 14,300 2,100 Climbing Boston Center
10:02PM 42.5024 -74.5810 216° Southwest  Level FlightAware Approximate
10:07PM 42.2280 -75.0180 234° Southwest 481 554 25,800  Level FlightAware ADS-B (KPEO)
10:07PM 42.1790 -75.1070 234° Southwest 485 558 27,100 2,040 Climbing FlightAware ADS-B (KPEO)
10:08PM 42.1380 -75.1800 234° Southwest 489 563 28,100 2,400 Climbing FlightAware ADS-B (KPEO)
10:09PM 42.0160 -75.4320 243° Southwest 460 529 32,500 2,460 Climbing FlightAware ADS-B (KPEO)
10:10PM 41.9860 -75.5080 243° Southwest 456 525 33,600 2,100 Climbing FlightAware ADS-B (KPEO)
10:10PM 41.9580 -75.5800 242° Southwest 451 519 34,600 1,980 Climbing FlightAware ADS-B (KPEO)
10:11PM 41.9280 -75.6560 243° Southwest 447 514 35,600 2,160 Climbing FlightAware ADS-B (KPEO)
10:11PM 41.9182 -75.6802 243° Southwest 441 507 36,100 2,100 Climbing FlightAware ADS-B (CYYZ)
10:12PM 41.8950 -75.7400 243° Southwest 437 503 36,900 1,260 Climbing FlightAware ADS-B (KPEO)
10:13PM 41.8350 -75.8950 243° Southwest 424 488 38,000 840 Climbing FlightAware ADS-B (KPEO)
10:13PM 41.8253 -75.9201 243° Southwest 421 484 38,000  Level FlightAware ADS-B (CYYZ)
10:13PM 41.8001 -75.9849 243° Southwest 423 487 38,000  Level FlightAware ADS-B (CYYZ)
10:14PM 41.7870 -76.0200 243° Southwest 425 489 38,000  Level FlightAware ADS-B (KPEO)
10:14PM 41.7590 -76.0900 243° Southwest 430 495 38,000  Level FlightAware ADS-B (KPEO)
10:14PM 41.7516 -76.1088 243° Southwest 429 494 38,000  Level FlightAware ADS-B (CYYZ)
10:15PM 41.7240 -76.1800 243° Southwest 434 499 38,000  Level FlightAware ADS-B (KPEO)
10:15PM 41.7101 -76.2131 243° Southwest 434 499 38,000  Level FlightAware ADS-B (CYYZ)
10:15PM 41.6960 -76.2490 243° Southwest 437 503 38,000  Level FlightAware ADS-B (KPEO)
10:16PM 41.6669 -76.3228 243° Southwest 438 504 38,000  Level FlightAware ADS-B (CYYZ)
10:16PM 41.6610 -76.3370 243° Southwest 438 504 38,000  Level FlightAware ADS-B (KPEO)
10:16PM 41.6614 -76.3372 242° Southwest 438 504 38,000  Level FlightAware ADS-B
10:16PM 41.6270 -76.4230 243° Southwest 440 506 38,000  Level FlightAware ADS-B (KPEO)
10:16PM 41.6247 -76.4305 243° Southwest 438 504 38,000  Level FlightAware ADS-B (CYYZ)
10:17PM 41.5990 -76.4950 243° Southwest 439 505 38,000  Level FlightAware ADS-B (KPEO)
10:17PM 41.5809 -76.5404 243° Southwest 436 502 38,000  Level FlightAware ADS-B (CYYZ)
10:17PM 41.5700 -76.5670 243° Southwest 437 503 38,000  Level FlightAware ADS-B (KPEO)
10:18PM 41.5617 -76.5880 242° Southwest 436 502 38,000  Level FlightAware ADS-B
10:18PM 41.5531 -76.6092 242° Southwest 436 502 38,000  Level FlightAware ADS-B (CYYZ)
10:18PM 41.5370 -76.6520 242° Southwest 436 502 38,000  Level FlightAware ADS-B (KPEO)
10:18PM 41.5239 -76.6826 242° Southwest 433 498 38,000  Level FlightAware ADS-B (CYYZ)
10:19PM 41.5020 -76.7370 242° Southwest 434 499 38,000  Level FlightAware ADS-B (KPEO)
10:19PM 41.4951 -76.7557 242° Southwest 433 498 38,000  Level FlightAware ADS-B (CYYZ)
10:19PM 41.4534 -76.8590 242° Southwest 432 497 38,000  Level FlightAware ADS-B (CYYZ)
10:20PM 41.4400 -76.8920 242° Southwest 433 498 38,000  Level FlightAware ADS-B (KPEO)
10:20PM 41.4246 -76.9294 242° Southwest 432 497 38,000  Level FlightAware ADS-B (CYYZ)
10:20PM 41.4120 -76.9620 242° Southwest 432 497 38,000  Level FlightAware ADS-B (KPEO)
10:20PM 41.3962 -76.9996 242° Southwest 431 496 38,000  Level FlightAware ADS-B (CYYZ)
10:21PM 41.3780 -77.0460 242° Southwest 431 496 38,000  Level FlightAware ADS-B (KPEO)
10:21PM 41.3675 -77.0717 242° Southwest 429 494 38,000  Level FlightAware ADS-B (CYYZ)
10:21PM 41.3500 -77.1160 242° Southwest 430 495 38,000  Level FlightAware ADS-B (KPEO)
10:22PM 41.3241 -77.1784 242° Southwest 429 494 38,000  Level FlightAware ADS-B (CYYZ)
10:22PM 41.3190 -77.1900 242° Southwest 430 495 38,000  Level FlightAware ADS-B (KPEO)
10:22PM 41.2850 -77.2734 242° Southwest 428 493 38,000  Level FlightAware ADS-B (CYYZ)
10:23PM 41.2790 -77.2870 242° Southwest 430 495 38,000  Level FlightAware ADS-B (KPEO)
10:23PM 41.2402 -77.3846 242° Southwest 428 493 38,000  Level FlightAware ADS-B (CYYZ)
10:23PM 41.2098 -77.4586 243° Southwest 425 489 38,000  Level FlightAware ADS-B (KWWD)
10:24PM 41.1956 -77.4933 242° Southwest 429 494 38,000  Level FlightAware ADS-B (CYYZ)
10:25PM 41.1542 -77.5923 242° Southwest 429 494 38,000  Level FlightAware ADS-B (CYYZ)
10:25PM 41.1104 -77.6986 242° Southwest 429 494 38,000  Level FlightAware ADS-B (CYYZ)
10:26PM 41.0806 -77.7701 242° Southwest 430 495 38,000  Level FlightAware ADS-B (CYYZ)
10:26PM 41.0470 -77.8510 241° Southwest 431 496 38,000  Level FlightAware ADS-B (KWWD)
10:27PM 41.0373 -77.8742 242° Southwest 431 496 38,000  Level FlightAware ADS-B (CYYZ)
10:27PM 40.9936 -77.9806 242° Southwest 433 498 38,000  Level FlightAware ADS-B (CYYZ)
10:28PM 40.9494 -78.0851 242° Southwest 434 499 38,000  Level FlightAware ADS-B (CYYZ)
10:29PM 40.9075 -78.1849 242° Southwest 435 501 38,000  Level FlightAware ADS-B (CYYZ)
10:30PM 40.8760 -78.2593 242° Southwest 435 501 38,000  Level FlightAware ADS-B (CYYZ)
10:30PM 40.8404 -78.3453 241° Southwest 436 502 38,000  Level FlightAware ADS-B (KWWD)
10:30PM 40.8320 -78.3638 241° Southwest 436 502 38,000  Level FlightAware ADS-B (CYYZ)
10:30PM 40.8015 -78.4356 241° Southwest 437 503 38,000  Level FlightAware ADS-B (KWWD)
10:31PM 40.7870 -78.4705 241° Southwest 436 502 38,000  Level FlightAware ADS-B (CYYZ)
10:32PM 40.7613 -78.5309 241° Southwest 437 503 38,000  Level FlightAware ADS-B (CYYZ)
10:32PM 40.7239 -78.6171 241° Southwest 438 504 38,000  Level FlightAware ADS-B (KWWD)
10:32PM 40.7119 -78.6452 241° Southwest 439 505 38,000  Level FlightAware ADS-B (CYYZ)
10:32PM 40.6745 -78.7336 242° Southwest 437 503 38,000  Level FlightAware ADS-B (KWWD)
10:33PM 40.6669 -78.7523 241° Southwest 440 506 38,000  Level FlightAware ADS-B (CYYZ)
10:33PM 40.6380 -78.8175 242° Southwest 437 503 38,000  Level FlightAware ADS-B (KWWD)
10:34PM 40.6213 -78.8572 241° Southwest 441 507 38,000  Level FlightAware ADS-B (CYYZ)
10:34PM 40.5913 -78.9273 241° Southwest 441 507 38,000  Level FlightAware ADS-B (CYYZ)
10:35PM 40.5453 -79.0326 241° Southwest 442 509 38,000  Level FlightAware ADS-B (CYYZ)
10:36PM 40.4995 -79.1401 241° Southwest 443 510 38,000  Level FlightAware ADS-B (CYYZ)
10:37PM 40.4534 -79.2453 241° Southwest 444 511 38,000  Level FlightAware ADS-B (CYYZ)
10:37PM 40.4224 -79.3157 241° Southwest 444 511 38,000  Level FlightAware ADS-B (CYYZ)
10:37PM 40.3796 -79.4138 241° Southwest 441 507 38,000  Level FlightAware ADS-B (KWWD)
10:38PM 40.3884 -79.3928 241° Southwest 444 511 38,000  Level FlightAware ADS-B (CYYZ)
10:38PM 40.3430 -79.4979 241° Southwest 441 507 38,000  Level FlightAware ADS-B (KWWD)
10:39PM 40.3343 -79.5167 241° Southwest 445 512 38,000  Level FlightAware ADS-B (CYYZ)
10:39PM 40.3136 -79.5634 241° Southwest 446 513 38,000  Level FlightAware ADS-B (CYYZ)
10:39PM 40.2759 -79.6499 240° Southwest 447 514 38,000  Level FlightAware ADS-B (CYKZ)
10:41PM 40.1890 -79.8465 240° Southwest 446 513 38,000  Level FlightAware ADS-B (CYYZ)
10:41PM 40.1742 -79.8791 240° Southwest 446 513 38,000  Level FlightAware ADS-B (KAGC)
10:42PM 40.1427 -79.9488 240° Southwest 444 511 38,000  Level FlightAware ADS-B (CYYZ)
10:42PM 40.1478 -79.9373 240° Southwest 444 511 38,000  Level FlightAware ADS-B (KAGC)
10:42PM 40.1113 -80.0206 240° Southwest 444 511 38,000  Level FlightAware ADS-B (CYYZ)
10:42PM 40.1478 -79.9373 240° Southwest 442 509 38,000  Level FlightAware ADS-B (KAGC)
10:43PM 40.0798 -80.0898 240° Southwest 441 507 38,000  Level FlightAware ADS-B (CYYZ)
10:43PM 40.0333 -80.1929 240° Southwest 440 506 38,000  Level FlightAware ADS-B (CYYZ)
10:44PM 40.0064 -80.2549 240° Southwest 440 506 38,000  Level FlightAware ADS-B (CYYZ)
10:45PM 39.9128 -80.4601 240° Southwest 439 505 38,000  Level FlightAware ADS-B (CYYZ)
10:46PM 39.8678 -80.5614 240° Southwest 441 507 38,000  Level Indianapolis Center
10:47PM 39.8181 -80.6689 239° Southwest 438 504 38,000  Level Cleveland Center
10:48PM 39.7272 -80.8685 239° Southwest 441 507 38,000  Level FlightAware ADS-B (KPMH)
10:54PM 39.3844 -81.6045 239° Southwest 442 509 38,000  Level FlightAware ADS-B (KPMH)
10:54PM 39.3410 -81.6968 239° Southwest 443 510 38,000  Level FlightAware ADS-B (KPMH)
10:55PM 39.2940 -81.7960 239° Southwest 444 511 38,000  Level FlightAware ADS-B (KPMH)
10:56PM 39.2485 -81.8931 239° Southwest 444 511 38,000  Level FlightAware ADS-B (KPMH)
10:57PM 39.1849 -82.0266 239° Southwest 445 512 38,000  Level FlightAware ADS-B (KPMH)
10:57PM 39.1469 -82.1055 238° Southwest 445 512 38,000  Level FlightAware ADS-B (KPMH)
10:58PM 39.1091 -82.1844 238° Southwest 445 512 38,000  Level FlightAware ADS-B (KPMH)
10:58PM 39.0811 -82.2429 238° Southwest 445 512 38,000  Level FlightAware ADS-B (KPMH)
10:59PM 39.0446 -82.3195 238° Southwest 445 512 38,000  Level FlightAware ADS-B (KPMH)
10:59PM 39.0111 -82.3894 238° Southwest 445 512 38,000  Level FlightAware ADS-B (KPMH)
11:00PM 38.9688 -82.4769 238° Southwest 445 512 38,000  Level FlightAware ADS-B (KPMH)
11:01PM 38.9384 -82.5398 238° Southwest 446 513 38,000  Level FlightAware ADS-B (KPMH)
11:01PM 38.9007 -82.6160 238° Southwest 445 512 38,000  Level FlightAware ADS-B (KPMH)
11:02PM 38.8656 -82.6899 238° Southwest 445 512 38,000  Level FlightAware ADS-B (KPMH)
11:02PM 38.8323 -82.7571 238° Southwest 445 512 38,000  Level FlightAware ADS-B (KPMH)
11:03PM 38.7996 -82.8240 238° Southwest 446 513 38,000  Level FlightAware ADS-B (KPMH)
11:03PM 38.7673 -82.8911 238° Southwest 446 513 38,000  Level FlightAware ADS-B (KPMH)
11:04PM 38.7344 -82.9582 238° Southwest 446 513 38,000  Level FlightAware ADS-B (KPMH)
11:04PM 38.6882 -83.0522 238° Southwest 446 513 38,000  Level FlightAware ADS-B (KPMH)
11:05PM 38.6402 -83.1483 238° Southwest 447 514 38,000  Level FlightAware ADS-B (KPMH)
11:06PM 38.6079 -83.2130 238° Southwest 448 516 38,000  Level FlightAware ADS-B (KPMH)
11:06PM 38.5735 -83.2845 238° Southwest 448 516 38,000  Level FlightAware ADS-B (KPMH)
11:07PM 38.5389 -83.3538 238° Southwest 449 517 38,000  Level FlightAware ADS-B (KPMH)
11:07PM 38.4980 -83.4363 238° Southwest 449 517 38,000  Level FlightAware ADS-B (KPMH)
11:08PM 38.4556 -83.5209 238° Southwest 447 514 38,000  Level FlightAware ADS-B (KPMH)
11:09PM 38.4109 -83.6096 238° Southwest 447 514 38,000  Level FlightAware ADS-B (KPMH)
11:09PM 38.3590 -83.7138 237° Southwest 446 513 38,000  Level FlightAware ADS-B (KPMH)
11:10PM 38.3260 -83.7780 237° Southwest 447 514 38,000  Level FlightAware ADS-B (KPMH)
11:10PM 38.2895 -83.8510 237° Southwest 447 514 38,000  Level FlightAware ADS-B (KPMH)
11:12PM 38.1991 -84.0296 237° Southwest 445 512 38,000  Level FlightAware ADS-B (KPMH)
11:14PM 38.0336 -84.3540 237° Southwest 445 512 38,000  Level FlightAware ADS-B (KCVG)
11:15PM 37.9710 -84.4767 237° Southwest 447 514 38,000  Level FlightAware ADS-B (KCVG)
11:16PM 37.9352 -84.5447 237° Southwest 447 514 38,000  Level FlightAware ADS-B (KCVG)
11:16PM 37.9034 -84.6063 237° Southwest 448 516 38,000  Level FlightAware ADS-B (KCVG)
11:17PM 37.8237 -84.7621 237° Southwest 449 517 38,000  Level FlightAware ADS-B (KBRY)
11:18PM 37.7769 -84.8521 237° Southwest 449 517 38,000  Level FlightAware ADS-B (KCVG)
11:19PM 37.6877 -85.0231 237° Southwest 449 517 38,000  Level FlightAware ADS-B (KBRY)
11:20PM 37.6177 -85.1567 237° Southwest 450 518 38,000  Level FlightAware ADS-B (KBRY)
11:21PM 37.5466 -85.2920 237° Southwest 449 517 38,000  Level FlightAware ADS-B (KBRY)
11:23PM 37.4640 -85.4479 236° Southwest 446 513 38,000  Level FlightAware ADS-B (KBRY)
11:24PM 37.4008 -85.5663 236° Southwest 444 511 38,000  Level FlightAware ADS-B (KBRY)
11:26PM 37.2613 -85.8279 236° Southwest 445 512 38,000  Level FlightAware ADS-B (KBRY)
11:27PM 37.1878 -85.9631 236° Southwest 447 514 38,000  Level FlightAware ADS-B (KBRY)
11:29PM 37.1389 -86.0553 236° Southwest 449 517 38,000 -240 Level FlightAware ADS-B (KBRY)
11:31PM 36.9103 -86.4773 240° Southwest 449 517 37,200 -600 Descending FlightAware ADS-B (KBRY)
11:31PM 36.9944 -86.3223 236° Southwest 450 518 36,500 -900 Descending FlightAware ADS-B (KMDH)
11:32PM 36.8356 -86.6572 236° Southwest 447 514 36,000 -420 Descending Indianapolis Center
11:37PM 36.4877 -87.4335 241° Southwest 468 539 34,000 -360 Descending FlightAware ADS-B (KMDH)
11:38PM 36.4287 -87.5629 241° Southwest 472 543 34,000  Level FlightAware ADS-B (KMDH)
11:39PM 36.3753 -87.6813 241° Southwest 475 547 34,000  Level FlightAware ADS-B (KMDH)
11:40PM 36.3315 -87.7746 238° Southwest 463 533 34,000 -1,020 Level FlightAware ADS-B (KMDH)
11:43PM 36.1059 -88.0714 226° Southwest 456 525 30,800 -1,080 Descending FlightAware ADS-B (KMDH)
11:43PM 36.0531 -88.1425 226° Southwest 456 525 30,500 -780 Descending Memphis Center
11:44PM 35.9714 -88.2561 228° Southwest 451 519 29,500 -1,020 Descending Memphis Center
11:45PM 35.9331 -88.3953 251° West 431 496 28,500 -1,140 Descending Memphis Center
11:46PM 35.8914 -88.5322 249° West 428 493 27,300 -1,200 Descending Memphis Center
11:47PM 35.8508 -88.6678 250° West 425 489 26,100 -1,140 Descending Memphis Center
11:48PM 35.8103 -88.8028 250° West 424 488 25,000 -1,080 Descending Memphis Center
11:49PM 35.7703 -88.9381 250° West 421 484 24,000 -1,320 Descending Memphis Center
11:50PM 35.7272 -89.0689 248° West 416 479 22,400 -2,220 Descending Memphis Center
11:51PM 35.6386 -89.1886 228° Southwest 410 472 19,500 -2,400 Descending Memphis Center
11:52PM 35.5628 -89.2872 227° Southwest 403 464 17,600 -1,920 Descending Memphis Center
11:53PM 35.4906 -89.3781 226° Southwest 383 441 15,600 -1,560 Descending Memphis Center
11:54PM 35.4228 -89.4669 227° Southwest 365 420 14,500 -1,140 Descending Memphis Center
11:55PM 35.3542 -89.5533 226° Southwest 361 415 13,400 -1,140 Descending Memphis Center
11:56PM 35.2889 -89.6375 226° Southwest 348 400 12,300 -1,140 Descending Memphis Center
11:57PM 35.2300 -89.7119 226° Southwest 318 366 11,200 -1,260 Descending Memphis Center
11:59PM 35.1636 -89.7944 225° Southwest 291 335 9,800 -1,020 Descending Memphis Center
12:00AM 35.1122 -89.8583 225° Southwest 274 315 9,200 -960 Descending Memphis Center
12:01AM 35.0450 -89.8658 185° South 253 291 7,900 -1,380 Descending Memphis Center
12:02AM 34.9728 -89.8642 179° South 254 292 6,500 -1,380 Descending Memphis Center
12:03AM 34.9053 -89.8631 179° South 250 288 5,100 -1,500 Descending Memphis Center
12:04AM 34.8436 -89.8681 184° South 240 276 3,500 -1,500 Descending Memphis Center
12:05AM 34.8317 -89.9256 256° West 201 231 2,100 -780 Descending Memphis Center
12:06AM 34.8739 -89.9583 328° Northwest 189 217 2,000 -60 Descending Memphis Center
12:07AM 34.9211 -89.9697 349° North 183 211 2,000 -300 Level Memphis Center
12:08AM 34.9689 -89.9711 359° North 180 207 1,400 -660 Descending Memphis Center
12:09AM 35.0078 -89.9722 359° North 158 182 700 -720 Descending Memphis Center
12:11AM 35.0333 -89.9667 231° Southwest  Level FlightAware Approximate